createdAt,value
2018-06-01T00:00:11.406Z,3.50
2018-06-01T00:02:38.907Z,2.93
2018-06-01T00:05:07.179Z,2.40
2018-06-01T00:07:34.625Z,2.87
2018-06-01T00:10:02.095Z,1.30
2018-06-01T00:12:29.523Z,1.40
2018-06-01T00:14:57.009Z,1.30
2018-06-01T00:17:24.481Z,1.20
2018-06-01T00:19:53.058Z,1.97
2018-06-01T00:22:20.518Z,2.43
2018-06-01T00:24:48.076Z,1.17
2018-06-01T00:27:15.549Z,1.37
2018-06-01T00:29:43.275Z,1.27
2018-06-01T00:32:10.732Z,1.60
2018-06-01T00:34:38.183Z,1.27
2018-06-01T00:37:05.619Z,1.40
2018-06-01T00:39:33.269Z,1.00
2018-06-01T00:42:00.795Z,2.83
2018-06-01T00:44:28.248Z,1.07
2018-06-01T00:46:55.688Z,1.13
2018-06-01T00:49:23.180Z,0.93
2018-06-01T00:51:50.636Z,1.37
2018-06-01T00:54:18.129Z,1.00
2018-06-01T00:56:45.887Z,1.20
2018-06-01T00:59:13.355Z,1.00
2018-06-01T01:01:40.808Z,1.53
2018-06-01T01:04:08.269Z,1.80
2018-06-01T01:06:35.729Z,1.30
2018-06-01T01:09:03.160Z,0.90
2018-06-01T01:11:30.641Z,1.23
2018-06-01T01:13:58.143Z,1.30
2018-06-01T01:16:25.600Z,1.40
2018-06-01T01:18:53.079Z,1.30
2018-06-01T01:21:20.517Z,1.37
2018-06-01T01:23:48.007Z,1.10
2018-06-01T01:26:15.457Z,1.30
2018-06-01T01:28:42.916Z,1.33
2018-06-01T01:31:10.355Z,2.00
2018-06-01T01:33:37.805Z,1.30
2018-06-01T01:36:05.388Z,1.40
2018-06-01T01:38:32.824Z,1.63
2018-06-01T01:41:00.291Z,1.73
2018-06-01T01:43:27.846Z,1.37
2018-06-01T01:45:55.290Z,1.10
2018-06-01T01:48:22.743Z,1.03
2018-06-01T01:50:50.183Z,0.97
2018-06-01T01:53:18.019Z,2.30
2018-06-01T01:55:45.520Z,1.33
2018-06-01T01:58:12.979Z,1.60
2018-06-01T02:00:40.443Z,2.60
2018-06-01T02:03:08.297Z,1.37
2018-06-01T02:05:35.764Z,1.27
2018-06-01T02:08:03.199Z,1.47
2018-06-01T02:10:30.671Z,1.50
2018-06-01T02:12:58.220Z,1.87
2018-06-01T02:15:25.664Z,1.50
2018-06-01T02:17:53.291Z,1.60
2018-06-01T02:20:20.782Z,1.33
2018-06-01T02:22:48.419Z,1.73
2018-06-01T02:25:15.935Z,0.97
2018-06-01T02:27:43.380Z,1.37
2018-06-01T02:30:10.845Z,0.97
2018-06-01T02:32:38.322Z,1.20
2018-06-01T02:35:05.777Z,1.67
2018-06-01T02:37:33.228Z,0.80
2018-06-01T02:40:00.663Z,1.27
2018-06-01T02:42:28.152Z,1.57
2018-06-01T02:44:55.624Z,1.43
2018-06-01T02:47:23.061Z,1.10
2018-06-01T02:49:50.890Z,1.20
2018-06-01T02:52:18.386Z,1.00
2018-06-01T02:54:45.887Z,1.10
2018-06-01T02:57:13.335Z,1.10
2018-06-01T02:59:40.884Z,1.20
2018-06-01T03:02:09.096Z,0.97
2018-06-01T03:04:36.558Z,1.13
2018-06-01T03:07:11.475Z,1.10
2018-06-01T03:09:38.912Z,1.47
2018-06-01T03:12:07.455Z,1.23
2018-06-01T03:14:34.904Z,1.27
2018-06-01T03:17:02.341Z,1.30
2018-06-01T03:19:30.210Z,1.10
2018-06-01T03:21:57.731Z,0.90
2018-06-01T03:24:25.207Z,1.17
2018-06-01T03:26:52.623Z,0.83
2018-06-01T03:29:20.104Z,1.43
2018-06-01T03:31:47.556Z,1.37
2018-06-01T03:34:15.000Z,1.00
2018-06-01T03:36:42.479Z,1.77
2018-06-01T03:39:09.939Z,1.50
2018-06-01T03:41:37.444Z,1.27
2018-06-01T03:44:04.910Z,1.13
2018-06-01T03:46:32.373Z,1.33
2018-06-01T03:49:00.593Z,1.47
2018-06-01T03:51:28.111Z,1.40
2018-06-01T03:53:55.556Z,1.33
2018-06-01T03:56:23.324Z,1.27
2018-06-01T03:58:50.748Z,1.20
2018-06-01T04:01:18.761Z,1.10
2018-06-01T04:03:46.215Z,1.70
2018-06-01T04:06:13.676Z,1.43
2018-06-01T04:08:41.127Z,1.50
2018-06-01T04:11:08.671Z,1.50
2018-06-01T04:13:36.462Z,1.13
2018-06-01T04:16:04.004Z,1.53
2018-06-01T04:18:31.469Z,1.27
2018-06-01T04:20:59.269Z,1.70
2018-06-01T04:23:26.713Z,1.43
2018-06-01T04:25:54.140Z,1.50
2018-06-01T04:28:21.591Z,1.70
2018-06-01T04:30:49.050Z,1.57
2018-06-01T04:33:16.652Z,1.20
2018-06-01T04:35:44.093Z,1.67
2018-06-01T04:38:11.523Z,1.23
2018-06-01T04:40:38.981Z,1.70
2018-06-01T04:43:06.432Z,2.20
2018-06-01T04:45:33.887Z,2.40
2018-06-01T04:48:01.342Z,2.20
2018-06-01T04:50:28.782Z,1.90
2018-06-01T04:52:56.683Z,1.63
2018-06-01T04:55:24.535Z,1.47
2018-06-01T04:57:51.988Z,1.90
2018-06-01T05:00:19.444Z,1.13
2018-06-01T05:02:46.924Z,1.80
2018-06-01T05:05:14.419Z,1.53
2018-06-01T05:07:41.924Z,2.07
2018-06-01T05:10:09.384Z,2.00
2018-06-01T05:12:36.811Z,1.60
2018-06-01T05:15:04.255Z,1.60
2018-06-01T05:17:31.741Z,1.80
2018-06-01T05:19:59.180Z,1.87
2018-06-01T05:22:27.036Z,2.07
2018-06-01T05:24:54.497Z,2.07
2018-06-01T05:27:22.057Z,1.90
2018-06-01T05:29:49.517Z,2.33
2018-06-01T05:32:16.951Z,2.10
2018-06-01T05:34:44.412Z,2.93
2018-06-01T05:37:11.873Z,2.80
2018-06-01T05:39:39.317Z,2.30
2018-06-01T05:42:07.136Z,3.10
2018-06-01T05:44:34.577Z,1.90
2018-06-01T05:47:02.155Z,2.80
2018-06-01T05:49:29.621Z,2.57
2018-06-01T05:51:57.052Z,2.90
2018-06-01T05:54:24.528Z,2.10
2018-06-01T05:56:51.957Z,2.53
2018-06-01T05:59:19.792Z,2.40
2018-06-01T06:01:47.245Z,2.33
2018-06-01T06:04:14.683Z,3.17
2018-06-01T06:06:42.161Z,2.30
2018-06-01T06:09:09.651Z,2.20
2018-06-01T06:11:37.510Z,2.03
2018-06-01T06:14:05.041Z,2.90
2018-06-01T06:16:32.841Z,2.90
2018-06-01T06:19:00.291Z,3.07
2018-06-01T06:21:27.752Z,2.03
2018-06-01T06:23:55.210Z,2.60
2018-06-01T06:26:22.670Z,2.87
2018-06-01T06:28:50.151Z,3.03
2018-06-01T06:31:17.629Z,3.03
2018-06-01T06:33:45.067Z,2.20
2018-06-01T06:36:12.544Z,2.40
2018-06-01T06:38:39.983Z,2.00
2018-06-01T06:41:07.465Z,2.43
2018-06-01T06:43:34.946Z,2.20
2018-06-01T06:46:02.384Z,3.60
2018-06-01T06:48:30.249Z,2.70
2018-06-01T06:50:58.113Z,1.93
2018-06-01T06:53:25.596Z,3.00
2018-06-01T06:55:53.487Z,1.73
2018-06-01T06:58:20.942Z,2.47
2018-06-01T07:00:48.460Z,2.57
2018-06-01T07:03:15.851Z,1.97
2018-06-01T07:05:43.330Z,2.80
2018-06-01T07:08:10.936Z,3.07
2018-06-01T07:10:38.635Z,2.57
2018-06-01T07:13:06.199Z,2.60
2018-06-01T07:15:33.639Z,2.33
2018-06-01T07:18:01.103Z,2.60
2018-06-01T07:20:28.569Z,2.80
2018-06-01T07:22:56.026Z,1.97
2018-06-01T07:25:23.492Z,2.33
2018-06-01T07:27:50.945Z,2.73
2018-06-01T07:30:20.714Z,3.43
2018-06-01T07:32:48.244Z,2.10
2018-06-01T07:35:15.688Z,2.20
2018-06-01T07:37:43.510Z,2.50
2018-06-01T07:40:10.948Z,2.40
2018-06-01T07:42:38.640Z,2.47
2018-06-01T07:45:07.905Z,2.57
2018-06-01T07:47:35.380Z,3.33
2018-06-01T07:50:02.857Z,2.80
2018-06-01T07:52:30.302Z,3.00
2018-06-01T07:54:57.735Z,2.60
2018-06-01T07:57:25.193Z,2.77
2018-06-01T07:59:52.643Z,2.20
2018-06-01T08:02:20.232Z,2.37
2018-06-01T08:04:47.673Z,2.43
2018-06-01T08:07:15.147Z,2.90
2018-06-01T08:09:42.946Z,2.33
2018-06-01T08:12:10.402Z,3.57
2018-06-01T08:14:37.863Z,2.73
2018-06-01T08:17:05.311Z,2.60
2018-06-01T08:19:32.801Z,3.00
2018-06-01T08:22:00.278Z,2.20
2018-06-01T08:24:27.715Z,2.87
2018-06-01T08:26:55.224Z,1.70
2018-06-01T08:29:22.645Z,2.43
2018-06-01T08:31:50.104Z,2.00
2018-06-01T08:34:17.577Z,2.10
2018-06-01T08:36:45.099Z,2.83
2018-06-01T08:39:12.543Z,2.43
2018-06-01T08:41:40.005Z,2.13
2018-06-01T08:44:07.466Z,3.20
2018-06-01T08:46:34.970Z,2.20
2018-06-01T08:49:02.366Z,2.80
2018-06-01T08:51:29.958Z,1.97
2018-06-01T08:53:57.398Z,2.37
2018-06-01T08:56:25.953Z,2.17
2018-06-01T08:58:53.458Z,1.70
2018-06-01T09:01:20.873Z,1.83
2018-06-01T09:03:48.350Z,2.10
2018-06-01T09:06:15.777Z,1.97
2018-06-01T09:08:43.265Z,2.50
2018-06-01T09:11:10.748Z,1.67
2018-06-01T09:13:38.196Z,2.27
2018-06-01T09:16:06.052Z,2.10
2018-06-01T09:18:33.491Z,2.30
2018-06-01T09:21:00.936Z,1.93
2018-06-01T09:23:28.379Z,3.10
2018-06-01T09:25:55.888Z,2.33
2018-06-01T09:28:23.396Z,2.60
2018-06-01T09:30:50.897Z,2.60
2018-06-01T09:33:18.341Z,2.67
2018-06-01T09:35:46.143Z,2.50
2018-06-01T09:38:13.619Z,2.10
2018-06-01T09:40:41.079Z,2.30
2018-06-01T09:43:08.945Z,3.00
2018-06-01T09:45:36.392Z,2.27
2018-06-01T09:48:03.845Z,2.30
2018-06-01T09:50:31.289Z,2.20
2018-06-01T09:52:58.821Z,2.03
2018-06-01T09:55:26.384Z,1.90
2018-06-01T09:57:53.759Z,1.50
2018-06-01T10:00:26.896Z,1.20
2018-06-01T10:02:54.454Z,1.63
2018-06-01T10:05:21.924Z,2.27
2018-06-01T10:07:49.367Z,1.90
2018-06-01T10:10:22.522Z,1.93
2018-06-01T10:12:49.959Z,1.73
2018-06-01T10:15:17.432Z,1.90
2018-06-01T10:17:44.907Z,1.60
2018-06-01T10:20:12.405Z,1.53
2018-06-01T10:22:39.860Z,1.77
2018-06-01T10:25:07.315Z,1.70
2018-06-01T10:27:34.808Z,1.70
2018-06-01T10:30:02.478Z,1.63
2018-06-01T10:32:30.071Z,1.97
2018-06-01T10:34:57.554Z,1.50
2018-06-01T10:37:25.007Z,2.13
2018-06-01T10:39:52.475Z,2.37
2018-06-01T10:42:19.955Z,1.87
2018-06-01T10:44:47.395Z,1.80
2018-06-01T10:47:15.254Z,1.90
2018-06-01T10:49:42.792Z,1.50
2018-06-01T10:52:10.238Z,1.60
2018-06-01T10:54:37.692Z,1.90
2018-06-01T10:57:05.140Z,2.37
2018-06-01T10:59:32.584Z,1.60
2018-06-01T11:02:00.416Z,1.90
2018-06-01T11:04:27.867Z,1.40
2018-06-01T11:06:55.440Z,1.87
2018-06-01T11:09:22.880Z,2.37
2018-06-01T11:11:50.681Z,2.40
2018-06-01T11:14:18.138Z,2.73
2018-06-01T11:16:45.681Z,3.13
2018-06-01T11:19:13.131Z,2.90
2018-06-01T11:21:40.589Z,2.40
2018-06-01T11:24:08.028Z,3.10
2018-06-01T11:26:35.483Z,3.60
2018-06-01T11:29:02.925Z,2.60
2018-06-01T11:31:30.413Z,2.80
2018-06-01T11:33:58.199Z,2.80
2018-06-01T11:36:25.707Z,2.47
2018-06-01T11:38:53.160Z,2.70
2018-06-01T11:41:20.625Z,3.50
2018-06-01T11:43:48.091Z,1.90
2018-06-01T11:46:15.524Z,2.33
2018-06-01T11:48:43.084Z,2.90
2018-06-01T11:51:10.535Z,2.33
2018-06-01T11:53:37.997Z,2.30
2018-06-01T11:56:05.891Z,2.17
2018-06-01T11:58:33.352Z,1.73
2018-06-01T12:01:00.780Z,2.63
2018-06-01T12:03:28.231Z,2.73
2018-06-01T12:05:56.065Z,2.67
2018-06-01T12:08:23.521Z,3.03
2018-06-01T12:10:51.088Z,2.70
2018-06-01T12:13:18.513Z,2.30
2018-06-01T12:15:46.006Z,2.30
2018-06-01T12:18:13.458Z,3.27
2018-06-01T12:20:40.917Z,2.40
2018-06-01T12:23:08.363Z,2.50
2018-06-01T12:25:35.808Z,2.97
2018-06-01T12:28:03.736Z,2.23
2018-06-01T12:30:31.175Z,2.80
2018-06-01T12:32:58.649Z,2.40
2018-06-01T12:35:26.087Z,2.53
2018-06-01T12:37:53.548Z,2.50
2018-06-01T12:40:20.995Z,3.17
2018-06-01T12:42:48.436Z,2.70
2018-06-01T12:45:15.892Z,3.47
2018-06-01T12:47:43.355Z,2.50
2018-06-01T12:50:11.193Z,2.27
2018-06-01T12:52:38.638Z,2.27
2018-06-01T12:55:06.080Z,2.60
2018-06-01T12:57:33.611Z,3.23
2018-06-01T13:00:01.051Z,3.07
2018-06-01T13:02:28.953Z,2.40
2018-06-01T13:04:56.387Z,2.20
2018-06-01T13:07:23.923Z,1.93
2018-06-01T13:09:51.805Z,2.07
2018-06-01T13:12:19.483Z,1.67
2018-06-01T13:14:47.050Z,2.50
2018-06-01T13:17:14.500Z,1.77
2018-06-01T13:19:41.947Z,1.30
2018-06-01T13:22:09.843Z,1.87
2018-06-01T13:24:37.307Z,1.90
2018-06-01T13:27:04.767Z,1.30
2018-06-01T13:29:32.308Z,1.60
2018-06-01T13:31:59.754Z,1.83
2018-06-01T13:34:27.217Z,2.00
2018-06-01T13:36:54.651Z,1.70
2018-06-01T13:39:22.909Z,1.90
2018-06-01T13:41:50.370Z,1.50
2018-06-01T13:44:18.042Z,1.70
2018-06-01T13:46:45.501Z,1.60
2018-06-01T13:49:12.960Z,1.87
2018-06-01T13:51:40.437Z,1.63
2018-06-01T13:54:07.872Z,1.73
2018-06-01T13:56:35.525Z,3.07
2018-06-01T13:59:03.196Z,1.57
2018-06-01T14:01:30.697Z,1.90
2018-06-01T14:03:58.156Z,1.60
2018-06-01T14:06:25.612Z,1.87
2018-06-01T14:08:53.470Z,2.00
2018-06-01T14:11:20.950Z,2.23
2018-06-01T14:13:48.389Z,2.20
2018-06-01T14:16:15.836Z,1.50
2018-06-01T14:18:43.312Z,1.30
2018-06-01T14:21:10.789Z,2.17
2018-06-01T14:23:38.271Z,1.60
2018-06-01T14:26:05.713Z,1.70
2018-06-01T14:28:33.475Z,1.57
2018-06-01T14:31:00.931Z,1.60
2018-06-01T14:33:28.879Z,1.70
2018-06-01T14:35:56.335Z,1.90
2018-06-01T14:38:23.817Z,1.83
2018-06-01T14:40:51.329Z,1.60
2018-06-01T14:43:18.756Z,1.50
2018-06-01T14:45:46.200Z,1.40
2018-06-01T14:48:13.690Z,1.10
2018-06-01T14:50:41.124Z,1.30
2018-06-01T14:53:08.637Z,1.27
2018-06-01T14:55:36.198Z,1.87
2018-06-01T14:58:04.740Z,1.40
2018-06-01T15:00:32.191Z,1.57
2018-06-01T15:02:59.718Z,1.50
2018-06-01T15:05:27.554Z,2.40
2018-06-01T15:07:55.100Z,1.40
2018-06-01T15:10:22.545Z,1.57
2018-06-01T15:12:50.116Z,1.40
2018-06-01T15:15:17.600Z,1.33
2018-06-01T15:17:45.261Z,1.23
2018-06-01T15:20:12.754Z,1.70
2018-06-01T15:22:40.192Z,1.47
2018-06-01T15:25:07.648Z,1.10
2018-06-01T15:27:35.190Z,1.40
2018-06-01T15:30:02.624Z,1.10
2018-06-01T15:32:30.439Z,1.67
2018-06-01T15:34:57.931Z,1.50
2018-06-01T15:37:25.464Z,1.77
2018-06-01T15:39:52.907Z,1.40
2018-06-01T15:42:20.368Z,1.77
2018-06-01T15:44:47.830Z,1.50
2018-06-01T15:47:15.291Z,1.60
2018-06-01T15:49:42.742Z,1.80
2018-06-01T15:52:10.180Z,1.60
2018-06-01T15:54:37.638Z,1.90
2018-06-01T15:57:05.096Z,1.30
2018-06-01T15:59:32.567Z,1.53
2018-06-01T16:02:00.327Z,1.67
2018-06-01T16:04:27.794Z,1.80
2018-06-01T16:06:55.248Z,2.00
2018-06-01T16:09:22.719Z,1.30
2018-06-01T16:11:50.164Z,1.67
2018-06-01T16:14:18.373Z,1.93
2018-06-01T16:16:45.994Z,1.80
2018-06-01T16:19:13.446Z,1.30
2018-06-01T16:21:40.923Z,1.43
2018-06-01T16:24:08.362Z,1.50
2018-06-01T16:26:35.806Z,1.20
2018-06-01T16:29:03.320Z,1.43
2018-06-01T16:31:30.781Z,1.60
2018-06-01T16:33:58.648Z,1.40
2018-06-01T16:36:26.110Z,2.30
2018-06-01T16:38:53.549Z,1.20
2018-06-01T16:41:21.090Z,1.23
2018-06-01T16:43:48.513Z,1.90
2018-06-01T16:46:16.019Z,1.70
2018-06-01T16:48:43.476Z,1.77
2018-06-01T16:51:11.877Z,1.30
2018-06-01T16:53:40.024Z,1.33
2018-06-01T16:56:07.827Z,1.73
2018-06-01T16:58:35.696Z,1.00
2018-06-01T17:01:03.197Z,1.57
2018-06-01T17:03:30.653Z,2.20
2018-06-01T17:05:58.311Z,1.40
2018-06-01T17:08:25.955Z,1.43
2018-06-01T17:10:53.421Z,1.83
2018-06-01T17:13:20.884Z,1.30
2018-06-01T17:15:48.335Z,1.60
2018-06-01T17:18:15.816Z,1.90
2018-06-01T17:20:43.359Z,1.20
2018-06-01T17:23:10.809Z,1.30
2018-06-01T17:25:38.258Z,1.80
2018-06-01T17:28:05.732Z,1.70
2018-06-01T17:30:33.184Z,1.07
2018-06-01T17:33:00.651Z,1.50
2018-06-01T17:35:28.103Z,1.27
2018-06-01T17:37:55.574Z,1.20
2018-06-01T17:40:22.996Z,1.73
2018-06-01T17:42:51.257Z,1.47
2018-06-01T17:45:18.713Z,1.40
2018-06-01T17:47:46.151Z,1.47
2018-06-01T17:50:13.639Z,1.50
2018-06-01T17:52:41.180Z,1.57
2018-06-01T17:55:08.629Z,1.90
2018-06-01T17:57:36.080Z,1.67
2018-06-01T18:00:03.551Z,1.37
2018-06-01T18:02:31.017Z,1.50
2018-06-01T18:04:58.464Z,1.20
2018-06-01T18:07:25.899Z,1.30
2018-06-01T18:09:53.372Z,1.40
2018-06-01T18:12:20.820Z,1.60
2018-06-01T18:14:48.288Z,1.77
2018-06-01T18:17:15.745Z,2.93
2018-06-01T18:19:43.199Z,1.20
2018-06-01T18:22:10.635Z,1.60
2018-06-01T18:24:38.106Z,1.40
2018-06-01T18:27:05.554Z,1.30
2018-06-01T18:29:33.029Z,1.70
2018-06-01T18:32:00.513Z,1.50
2018-06-01T18:34:27.960Z,1.10
2018-06-01T18:36:55.412Z,1.30
2018-06-01T18:39:22.865Z,1.80
2018-06-01T18:41:50.630Z,1.57
2018-06-01T18:44:18.824Z,1.40
2018-06-01T18:46:46.507Z,1.70
2018-06-01T18:49:13.992Z,1.80
2018-06-01T18:51:41.800Z,1.87
2018-06-01T18:54:09.275Z,1.33
2018-06-01T18:56:36.748Z,1.20
2018-06-01T18:59:04.192Z,1.80
2018-06-01T19:01:31.713Z,2.20
2018-06-01T19:03:59.174Z,1.80
2018-06-01T19:06:26.637Z,1.67
2018-06-01T19:08:54.303Z,1.90
2018-06-01T19:11:21.757Z,1.90
2018-06-01T19:13:49.212Z,1.00
2018-06-01T19:16:16.643Z,2.50
2018-06-01T19:18:44.095Z,2.27
2018-06-01T19:21:11.536Z,1.30
2018-06-01T19:23:38.981Z,1.80
2018-06-01T19:26:07.214Z,1.40
2018-06-01T19:28:34.652Z,2.20
2018-06-01T19:31:02.101Z,1.50
2018-06-01T19:33:29.714Z,2.13
2018-06-01T19:35:57.140Z,1.47
2018-06-01T19:38:24.591Z,1.33
2018-06-01T19:40:52.079Z,1.70
2018-06-01T19:43:19.939Z,1.40
2018-06-01T19:45:47.375Z,1.63
2018-06-01T19:48:14.932Z,1.70
2018-06-01T19:50:42.387Z,1.70
2018-06-01T19:53:09.918Z,1.90
2018-06-01T19:55:37.494Z,1.70
2018-06-01T19:58:04.941Z,1.80
2018-06-01T20:00:33.893Z,1.97
2018-06-01T20:03:01.360Z,1.40
2018-06-01T20:05:28.820Z,2.63
2018-06-01T20:07:56.271Z,1.70
2018-06-01T20:10:23.725Z,1.60
2018-06-01T20:12:51.538Z,2.00
2018-06-01T20:15:18.987Z,2.13
2018-06-01T20:17:46.424Z,2.30
2018-06-01T20:20:13.917Z,2.07
2018-06-01T20:22:41.352Z,2.13
2018-06-01T20:25:08.797Z,1.80
2018-06-01T20:27:36.357Z,1.87
2018-06-01T20:30:03.799Z,2.20
2018-06-01T20:32:31.272Z,3.23
2018-06-01T20:34:58.708Z,1.90
2018-06-01T20:37:26.168Z,2.10
2018-06-01T20:39:53.641Z,1.47
2018-06-01T20:42:21.088Z,2.00
2018-06-01T20:44:48.647Z,2.57
2018-06-01T20:47:16.100Z,1.87
2018-06-01T20:49:43.551Z,1.70
2018-06-01T20:52:11.331Z,1.90
2018-06-01T20:54:38.827Z,2.00
2018-06-01T20:57:06.636Z,1.80
2018-06-01T20:59:34.161Z,2.17
2018-06-01T21:02:01.624Z,2.00
2018-06-01T21:04:29.070Z,1.80
2018-06-01T21:06:56.936Z,2.53
2018-06-01T21:09:24.449Z,2.00
2018-06-01T21:11:51.933Z,2.20
2018-06-01T21:14:19.391Z,1.87
2018-06-01T21:16:46.853Z,1.80
2018-06-01T21:19:14.407Z,2.40
2018-06-01T21:21:41.865Z,1.80
2018-06-01T21:24:09.324Z,1.40
2018-06-01T21:26:37.111Z,1.50
2018-06-01T21:29:04.579Z,1.80
2018-06-01T21:31:32.034Z,2.10
2018-06-01T21:33:59.497Z,1.60
2018-06-01T21:36:27.301Z,2.77
2018-06-01T21:38:54.761Z,2.67
2018-06-01T21:41:22.228Z,2.07
2018-06-01T21:43:49.689Z,1.90
2018-06-01T21:46:17.126Z,2.40
2018-06-01T21:48:44.624Z,1.77
2018-06-01T21:51:12.073Z,2.00
2018-06-01T21:53:39.547Z,1.77
2018-06-01T21:56:07.396Z,1.83
2018-06-01T21:58:34.856Z,2.33
2018-06-01T22:01:02.319Z,2.47
2018-06-01T22:03:29.769Z,1.90
2018-06-01T22:05:57.276Z,1.50
2018-06-01T22:08:25.125Z,2.40
2018-06-01T22:10:52.560Z,2.20
2018-06-01T22:13:20.114Z,2.50
2018-06-01T22:15:47.550Z,2.27
2018-06-01T22:18:15.048Z,2.23
2018-06-01T22:20:42.497Z,1.90
2018-06-01T22:23:09.954Z,2.20
2018-06-01T22:25:37.407Z,1.93
2018-06-01T22:28:04.852Z,2.70
2018-06-01T22:30:32.619Z,1.97
2018-06-01T22:33:00.058Z,2.10
2018-06-01T22:35:27.493Z,2.70
2018-06-01T22:37:55.159Z,2.17
2018-06-01T22:40:22.725Z,2.27
2018-06-01T22:42:50.182Z,2.00
2018-06-01T22:45:17.615Z,2.37
2018-06-01T22:47:45.068Z,2.27
2018-06-01T22:50:13.293Z,1.80
2018-06-01T22:52:41.059Z,2.20
2018-06-01T22:55:08.524Z,2.30
2018-06-01T22:57:35.969Z,3.33
2018-06-01T23:00:03.465Z,2.20
2018-06-01T23:02:30.922Z,1.60
2018-06-01T23:04:58.382Z,2.13
2018-06-01T23:07:26.249Z,2.40
2018-06-01T23:09:53.722Z,2.20
2018-06-01T23:12:21.178Z,2.13
2018-06-01T23:14:48.636Z,2.20
2018-06-01T23:17:16.080Z,2.40
2018-06-01T23:19:43.568Z,2.70
2018-06-01T23:22:11.036Z,2.77
2018-06-01T23:24:38.481Z,2.10
2018-06-01T23:27:05.971Z,2.03
2018-06-01T23:29:33.433Z,2.13
2018-06-01T23:32:00.868Z,2.97
2018-06-01T23:34:28.366Z,3.13
2018-06-01T23:36:56.161Z,2.17
2018-06-01T23:39:23.611Z,2.37
2018-06-01T23:41:51.143Z,2.10
2018-06-01T23:44:18.591Z,2.23
2018-06-01T23:46:46.044Z,1.93
2018-06-01T23:49:13.487Z,2.40
2018-06-01T23:51:40.961Z,2.80
2018-06-01T23:54:08.413Z,1.97
2018-06-01T23:56:35.854Z,2.13
2018-06-01T23:59:03.735Z,2.87
